createdAt,value
2022-09-05T00:00:24.389Z,6.8
2022-09-05T00:05:24.407Z,6.6
2022-09-05T00:10:24.580Z,6.7
2022-09-05T00:15:24.546Z,6.5
2022-09-05T00:24:25.375Z,7.9
2022-09-05T00:25:31.162Z,7.0
2022-09-05T00:31:08.222Z,7.1
2022-09-05T00:35:26.150Z,7.3
2022-09-05T00:40:24.376Z,7.4
2022-09-05T00:45:24.401Z,7.9
2022-09-05T00:50:24.564Z,7.6
2022-09-05T00:55:24.430Z,8.3
2022-09-05T01:00:24.502Z,8.1
2022-09-05T01:05:24.602Z,8.6
2022-09-05T01:10:24.402Z,8.4
2022-09-05T01:15:24.396Z,7.9
2022-09-05T01:20:24.528Z,8.2
2022-09-05T01:25:24.381Z,9.0
2022-09-05T01:30:29.694Z,8.5
2022-09-05T01:35:24.462Z,9.1
2022-09-05T01:40:24.371Z,9.2
2022-09-05T01:45:25.092Z,9.0
2022-09-05T01:50:24.457Z,9.3
2022-09-05T01:55:24.366Z,9.3
2022-09-05T02:00:24.314Z,9.4
2022-09-05T02:05:48.420Z,10.1
2022-09-05T02:10:24.510Z,10.7
2022-09-05T02:15:24.656Z,11.3
2022-09-05T02:20:24.453Z,11.2
2022-09-05T02:26:01.843Z,12.0
2022-09-05T02:30:24.513Z,11.4
2022-09-05T02:35:24.449Z,12.6
2022-09-05T02:45:04.365Z,10.6
2022-09-05T02:45:26.579Z,11.8
2022-09-05T02:57:23.075Z,12.1
2022-09-05T02:57:26.343Z,12.3
2022-09-05T03:00:24.176Z,12.4
2022-09-05T03:05:24.223Z,12.0
2022-09-05T03:10:26.724Z,12.6
2022-09-05T03:15:24.256Z,11.9
2022-09-05T03:20:24.291Z,12.3
2022-09-05T03:25:24.255Z,11.5
2022-09-05T03:30:24.210Z,11.8
2022-09-05T03:35:24.320Z,11.9
2022-09-05T03:40:24.077Z,11.1
2022-09-05T03:45:36.657Z,11.7
2022-09-05T03:56:56.936Z,12.8
2022-09-05T03:57:11.220Z,12.4
2022-09-05T04:00:24.178Z,13.5
2022-09-05T04:08:19.115Z,16.2
2022-09-05T04:10:24.242Z,14.0
2022-09-05T04:15:24.140Z,16.3
2022-09-05T04:20:24.201Z,16.2
2022-09-05T04:25:24.022Z,16.7
2022-09-05T04:30:37.896Z,17.5
2022-09-05T04:35:24.309Z,18.7
2022-09-05T04:40:23.978Z,22.0
2022-09-05T04:45:24.644Z,20.3
2022-09-05T04:50:24.561Z,20.8
2022-09-05T04:55:24.028Z,19.8
2022-09-05T05:05:16.563Z,18.7
2022-09-05T05:06:17.340Z,17.6
2022-09-05T05:14:31.332Z,15.6
2022-09-05T05:18:14.522Z,15.1
2022-09-05T05:20:42.766Z,15.5
2022-09-05T05:25:23.940Z,15.0
2022-09-05T05:30:23.945Z,16.6
2022-09-05T05:35:24.032Z,14.8
2022-09-05T05:40:23.853Z,14.8
2022-09-05T05:45:23.915Z,14.2
2022-09-05T05:50:24.259Z,12.9
2022-09-05T05:55:50.555Z,13.0
2022-09-05T06:00:27.518Z,13.2
2022-09-05T06:05:23.893Z,11.9
2022-09-05T06:14:54.742Z,12.1
2022-09-05T06:15:24.958Z,11.1
2022-09-05T06:22:07.050Z,10.8
2022-09-05T06:25:23.804Z,10.4
2022-09-05T06:30:23.787Z,10.4
2022-09-05T06:35:24.014Z,9.1
2022-09-05T06:40:23.756Z,9.0
2022-09-05T06:45:27.707Z,8.4
2022-09-05T06:50:27.932Z,8.1
2022-09-05T06:55:24.039Z,7.6
2022-09-05T07:00:23.878Z,6.6
2022-09-05T07:05:38.949Z,7.0
2022-09-05T07:10:38.049Z,6.3
2022-09-05T07:15:23.751Z,5.7
2022-09-05T07:20:23.943Z,5.7
2022-09-05T07:25:26.138Z,5.8
2022-09-05T07:30:23.725Z,5.1
2022-09-05T07:35:23.757Z,5.3
2022-09-05T07:40:25.855Z,5.0
2022-09-05T07:45:23.854Z,5.2
2022-09-05T07:52:43.116Z,4.8
2022-09-05T07:56:59.648Z,4.8
2022-09-05T08:00:26.924Z,4.1
2022-09-05T08:05:34.464Z,4.7
2022-09-05T08:10:31.014Z,4.3
2022-09-05T08:15:23.843Z,3.8
2022-09-05T08:20:23.617Z,4.6
2022-09-05T08:25:23.851Z,3.5
2022-09-05T08:30:25.551Z,3.9
2022-09-05T08:35:23.569Z,4.5
2022-09-05T08:40:23.767Z,4.3
2022-09-05T08:46:44.171Z,3.9
2022-09-05T08:50:26.963Z,4.0
2022-09-05T08:55:23.583Z,4.0
2022-09-05T09:00:24.178Z,4.0
2022-09-05T09:05:23.843Z,3.6
2022-09-05T09:10:26.139Z,3.9
2022-09-05T09:15:23.497Z,3.9
2022-09-05T09:20:23.625Z,3.9
2022-09-05T09:25:26.419Z,3.5
2022-09-05T09:30:23.656Z,4.0
2022-09-05T09:35:23.510Z,4.1
2022-09-05T09:40:23.660Z,3.9
2022-09-05T09:45:28.537Z,4.0
2022-09-05T09:50:23.735Z,3.8
2022-09-05T09:55:23.554Z,4.2
2022-09-05T10:00:23.580Z,3.6
2022-09-05T10:10:39.521Z,3.7
2022-09-05T10:10:54.672Z,3.3
2022-09-05T10:15:30.860Z,3.6
2022-09-05T10:20:28.694Z,3.5
2022-09-05T10:25:23.522Z,3.8
2022-09-05T10:31:09.996Z,3.6
2022-09-05T10:35:24.669Z,3.6
2022-09-05T10:40:23.479Z,3.5
2022-09-05T10:45:33.410Z,3.2
2022-09-05T10:50:23.536Z,3.1
2022-09-05T11:02:20.510Z,3.4
2022-09-05T11:05:23.691Z,3.8
2022-09-05T11:10:23.464Z,3.4
2022-09-05T11:15:23.546Z,3.5
2022-09-05T11:20:28.949Z,3.5
2022-09-05T11:25:40.199Z,3.0
2022-09-05T11:30:29.244Z,3.2
2022-09-05T11:39:54.635Z,3.0
2022-09-05T11:40:35.376Z,3.1
2022-09-05T11:45:23.364Z,4.1
2022-09-05T11:50:23.535Z,3.2
2022-09-05T11:55:23.506Z,3.5
2022-09-05T12:00:31.353Z,3.6
2022-09-05T12:05:47.330Z,3.1
2022-09-05T12:10:46.074Z,3.8
2022-09-05T12:15:23.347Z,3.3
2022-09-05T12:20:23.317Z,3.5
2022-09-05T12:26:06.795Z,3.6
2022-09-05T12:30:23.307Z,3.3
2022-09-05T12:36:11.066Z,2.9
2022-09-05T12:41:39.048Z,3.0
2022-09-05T12:45:30.474Z,3.2
2022-09-05T12:50:23.244Z,3.9
2022-09-05T12:55:23.548Z,3.0
2022-09-05T13:03:05.042Z,3.2
2022-09-05T13:05:23.418Z,3.2
2022-09-05T13:11:55.732Z,3.4
2022-09-05T13:15:24.187Z,2.9
2022-09-05T13:20:23.314Z,3.3
2022-09-05T13:31:56.384Z,2.5
2022-09-05T13:45:24.496Z,3.0
2022-09-05T13:50:23.292Z,2.9
2022-09-05T13:55:23.137Z,2.7
2022-09-05T14:00:28.330Z,3.0
2022-09-05T14:05:26.716Z,3.1
2022-09-05T14:10:23.126Z,3.2
2022-09-05T14:15:25.186Z,3.2
2022-09-05T14:20:23.439Z,3.7
2022-09-05T14:25:23.503Z,4.0
2022-09-05T14:32:09.293Z,3.3
2022-09-05T14:37:41.286Z,3.3
2022-09-05T14:40:29.999Z,3.1
2022-09-05T14:45:23.174Z,2.9
2022-09-05T14:50:23.230Z,2.7
2022-09-05T14:55:23.300Z,2.8
2022-09-05T15:02:39.767Z,2.8
2022-09-05T15:05:23.189Z,3.0
2022-09-05T15:12:18.429Z,2.8
2022-09-05T15:15:23.097Z,2.7
2022-09-05T15:20:23.154Z,3.7
2022-09-05T15:25:23.260Z,3.0
2022-09-05T15:30:25.607Z,3.1
2022-09-05T15:35:23.173Z,3.8
2022-09-05T15:40:24.444Z,3.9
2022-09-05T15:45:23.029Z,5.1
2022-09-05T15:50:23.128Z,3.6
2022-09-05T15:55:23.253Z,4.5
2022-09-05T16:00:23.068Z,3.7
2022-09-05T16:10:26.810Z,3.7
2022-09-05T16:10:49.818Z,3.0
2022-09-05T16:21:34.358Z,3.5
2022-09-05T16:23:13.820Z,3.6
2022-09-05T16:25:22.981Z,3.4
2022-09-05T16:30:23.147Z,3.2
2022-09-05T16:35:25.181Z,3.6
2022-09-05T16:40:23.039Z,3.1
2022-09-05T16:45:23.146Z,3.6
2022-09-05T16:50:24.043Z,3.1
2022-09-05T16:55:29.422Z,3.3
2022-09-05T17:00:23.000Z,3.3
2022-09-05T17:05:23.011Z,3.7
2022-09-05T17:10:24.327Z,5.8
2022-09-05T17:15:23.001Z,5.4
2022-09-05T17:20:23.069Z,4.4
2022-09-05T17:29:25.034Z,4.2
2022-09-05T17:31:47.421Z,4.2
2022-09-05T17:35:23.100Z,3.9
2022-09-05T17:40:22.987Z,3.5
2022-09-05T17:45:23.183Z,4.2
2022-09-05T17:50:23.099Z,3.8
2022-09-05T17:55:22.965Z,3.4
2022-09-05T18:00:23.198Z,4.1
2022-09-05T18:05:22.941Z,3.8
2022-09-05T18:15:23.888Z,4.6
2022-09-05T18:20:23.039Z,5.2
2022-09-05T18:25:28.875Z,4.3
2022-09-05T18:30:22.874Z,5.2
2022-09-05T18:35:27.961Z,5.1
2022-09-05T18:40:36.228Z,5.5
2022-09-05T18:45:28.831Z,5.5
2022-09-05T18:50:27.592Z,6.1
2022-09-05T18:56:10.105Z,4.7
2022-09-05T19:00:23.177Z,5.4
2022-09-05T19:05:28.542Z,5.6
2022-09-05T19:10:35.780Z,4.6
2022-09-05T19:15:24.957Z,5.2
2022-09-05T19:20:32.802Z,5.2
2022-09-05T19:25:23.086Z,5.4
2022-09-05T19:37:03.788Z,5.2
2022-09-05T19:37:10.140Z,5.2
2022-09-05T19:44:09.001Z,4.9
2022-09-05T19:47:39.851Z,5.0
2022-09-05T19:50:22.637Z,5.1
2022-09-05T19:55:22.733Z,5.0
2022-09-05T20:00:23.166Z,5.3
2022-09-05T20:05:22.702Z,5.2
2022-09-05T20:10:22.590Z,4.7
2022-09-05T20:15:22.894Z,5.1
2022-09-05T20:20:22.648Z,5.7
2022-09-05T20:25:35.124Z,5.4
2022-09-05T20:30:22.866Z,5.1
2022-09-05T20:37:24.025Z,4.4
2022-09-05T20:43:23.650Z,4.3
2022-09-05T20:45:23.009Z,4.3
2022-09-05T20:54:14.765Z,4.8
2022-09-05T21:00:22.850Z,5.0
2022-09-05T21:05:22.680Z,5.9
2022-09-05T21:10:22.528Z,4.5
2022-09-05T21:15:35.131Z,4.9
2022-09-05T21:20:22.588Z,5.1
2022-09-05T21:25:22.615Z,4.0
2022-09-05T21:30:23.525Z,4.8
2022-09-05T21:35:35.410Z,4.3
2022-09-05T21:40:22.664Z,3.9
2022-09-05T21:47:39.512Z,4.0
2022-09-05T21:50:31.153Z,4.1
2022-09-05T21:59:21.115Z,4.0
2022-09-05T22:00:23.200Z,3.6
2022-09-05T22:05:22.569Z,3.2
2022-09-05T22:10:22.984Z,3.3
2022-09-05T22:15:27.794Z,3.4
2022-09-05T22:20:22.623Z,3.1
2022-09-05T22:25:22.542Z,2.9
2022-09-05T22:30:22.432Z,3.5
2022-09-05T22:35:28.222Z,3.2
2022-09-05T22:40:22.547Z,3.3
2022-09-05T22:45:22.488Z,2.6
2022-09-05T22:50:22.340Z,2.8
2022-09-05T22:55:22.498Z,2.6
2022-09-05T23:00:22.482Z,2.2
2022-09-05T23:05:22.688Z,2.4
2022-09-05T23:10:22.344Z,2.0
2022-09-05T23:15:22.390Z,2.4
2022-09-05T23:20:22.839Z,2.0
2022-09-05T23:25:22.436Z,1.9
2022-09-05T23:30:22.330Z,1.9
2022-09-05T23:35:22.746Z,1.5
2022-09-05T23:40:22.393Z,1.9
2022-09-05T23:45:22.413Z,1.6
2022-09-05T23:50:22.245Z,1.5
2022-09-05T23:55:22.406Z,2.1
